OMRK/RKT METAR and TAF weather

Enter ICAO airport designator
Station Type Date Time Source
OMRK METAR 2020/05/29 19:00 UTC NOAA

OMRK 291900Z VRB02KT CAVOK 29/17 Q1003 A2963


Station Type Date Time Source
OMRK Decoded METAR 2020/05/29 19:00 UTC NOAA

Ras Al Khaimah International Airport, United Arab Emirates (OMRK) 25-37N 055-56E 31M
May 29, 2020 - 03:00 PM EDT / 2020.05.29 1900 UTC
Wind: Variable at 2 MPH (2 KT):0
Visibility: greater than 7 mile(s):0
Temperature: 84 F (29 C)
Dew Point: 62 F (17 C)
Relative Humidity: 48%
Pressure (altimeter): 29.63 in. Hg (1003 hPa)
ob: OMRK 291900Z VRB02KT CAVOK 29/17 Q1003 A2963
cycle: 19

Station Type Date Time Source
OMRK TAF 2020/05/29 18:01 UTC NOAA

TAF OMRK 291655Z 2918/3100 VRB02KT 8000 NSC
BECMG 3002/3004 21010KT
BECMG 3007/3009 30014KT
BECMG 3015/3017 VRB02KT

Example: see airport list